Time;durP1;ratioP1;P1;durP2;ratioP2;P2;SDS_P1;SDS_P2;PMS_P1;PMS_P2;Temp;Humidity;BMP_temperature;BMP_pressure;BME280_temperature;BME280_humidity;BME280_pressure;Samples;Min_cycle;Max_cycle;Signal;HPM_P1;HPM_P2
2023/05/08 05:43:02;;;;;;;7.72;6.47;;;;;;;13.37;64.93;95099.44;5113531;27;20576;-71
2023/05/08 05:45:29;;;;;;;7.75;7.05;;;;;;;13.42;65.00;95104.66;5112872;28;20180;-72
2023/05/08 05:47:55;;;;;;;9.18;8.23;;;;;;;13.47;65.27;95104.31;5146715;27;20570;-71
2023/05/08 05:50:23;;;;;;;8.27;7.47;;;;;;;13.52;65.15;95100.47;5146235;27;20195;-73
2023/05/08 05:52:51;;;;;;;8.02;7.18;;;;;;;13.53;64.56;95107.59;5112718;28;20195;-73
2023/05/08 05:55:18;;;;;;;8.60;7.68;;;;;;;13.54;63.79;95095.34;5146498;27;20199;-71
2023/05/08 05:57:45;;;;;;;7.72;7.03;;;;;;;13.58;64.50;95102.56;5112701;28;20176;-75
2023/05/08 06:00:14;;;;;;;8.27;7.28;;;;;;;13.64;64.56;95097.47;5111889;28;20211;-71
2023/05/08 06:02:41;;;;;;;7.90;6.53;;;;;;;13.70;63.88;95091.25;5111859;28;20224;-70
2023/05/08 06:05:08;;;;;;;8.32;7.53;;;;;;;13.74;64.19;95088.53;5111827;28;20230;-70
2023/05/08 06:07:35;;;;;;;8.88;8.07;;;;;;;13.79;64.17;95090.19;5112784;28;20187;-70
2023/05/08 06:10:02;;;;;;;8.23;7.13;;;;;;;13.82;64.24;95089.44;5112645;28;20204;-73
2023/05/08 06:12:29;;;;;;;8.95;7.80;;;;;;;13.83;63.58;95086.28;5112286;28;20180;-73
2023/05/08 06:14:56;;;;;;;8.35;7.38;;;;;;;13.89;63.46;95082.03;5112486;28;20209;-75
2023/05/08 06:17:24;;;;;;;8.10;7.35;;;;;;;13.95;64.04;95083.31;5112196;28;20180;-75
2023/05/08 06:19:52;;;;;;;8.57;7.45;;;;;;;14.01;63.44;95081.00;5112423;28;20218;-75
2023/05/08 06:22:21;;;;;;;8.02;7.20;;;;;;;14.06;62.89;95082.66;5112413;28;20199;-75
2023/05/08 06:24:52;;;;;;;7.95;6.93;;;;;;;14.11;63.39;95090.66;5112003;28;20191;-75
2023/05/08 06:27:19;;;;;;;7.72;6.90;;;;;;;14.17;62.84;95078.84;5111767;28;20199;-75
2023/05/08 06:29:47;;;;;;;7.60;6.90;;;;;;;14.22;62.60;95083.28;5111752;28;20208;-75
2023/05/08 06:32:14;;;;;;;8.55;7.55;;;;;;;14.25;62.58;95088.06;5145861;27;20192;-73
2023/05/08 06:34:47;;;;;;;7.63;6.95;;;;;;;14.28;62.69;95086.53;5111324;28;20253;-69
2023/05/08 06:37:15;;;;;;;7.82;7.03;;;;;;;14.35;62.85;95097.72;5111864;28;20531;-70
2023/05/08 06:39:41;;;;;;;8.45;7.75;;;;;;;14.39;62.62;95099.34;5112097;28;20202;-70
2023/05/08 06:42:10;;;;;;;8.32;7.63;;;;;;;14.45;62.53;95094.25;5111813;28;20231;-70
2023/05/08 06:44:36;;;;;;;9.00;8.10;;;;;;;14.51;62.20;95090.00;5111723;28;20291;-70
2023/05/08 06:47:07;;;;;;;6.88;6.28;;;;;;;14.58;61.84;95095.66;5111855;28;20257;-70
2023/05/08 06:49:38;;;;;;;8.20;7.05;;;;;;;14.63;61.48;95088.97;5110989;28;20282;-69
2023/05/08 06:52:07;;;;;;;7.38;6.78;;;;;;;14.72;61.93;95085.91;5110575;28;20628;-70
2023/05/08 06:54:34;;;;;;;7.60;6.90;;;;;;;14.75;61.76;95085.94;5096590;28;20589;-70
2023/05/08 06:57:01;;;;;;;8.07;6.90;;;;;;;14.79;61.80;95089.56;5098113;28;20196;-70
2023/05/08 06:59:27;;;;;;;7.25;6.55;;;;;;;14.82;61.70;95086.03;5131463;27;20207;-71
2023/05/08 07:01:54;;;;;;;7.50;6.85;;;;;;;14.84;61.52;95093.97;5098077;28;20220;-70
2023/05/08 07:04:21;;;;;;;7.32;6.50;;;;;;;14.91;61.73;95099.59;5097964;28;20567;-70
2023/05/08 07:06:49;;;;;;;7.10;6.40;;;;;;;14.97;61.80;95100.88;5097136;28;20197;-70
2023/05/08 07:09:17;;;;;;;7.25;6.50;;;;;;;15.03;61.43;95104.91;5096830;28;20216;-71
2023/05/08 07:11:44;;;;;;;8.18;6.88;;;;;;;15.10;61.40;95102.19;5097848;28;20192;-70
2023/05/08 07:14:10;;;;;;;7.70;7.00;;;;;;;15.15;61.51;95104.63;5096723;28;20215;-71
2023/05/08 07:16:37;;;;;;;6.82;6.13;;;;;;;15.21;61.16;95098.72;5097839;28;20234;-70
2023/05/08 07:19:04;;;;;;;7.43;6.65;;;;;;;15.24;60.80;95098.75;5097756;28;20263;-70
2023/05/08 07:21:31;;;;;;;6.43;5.82;;;;;;;15.28;60.84;95099.56;5097637;28;20233;-69
2023/05/08 07:23:57;;;;;;;6.40;5.80;;;;;;;15.33;61.15;95093.69;5097693;28;20188;-70
2023/05/08 07:26:26;;;;;;;5.55;5.05;;;;;;;15.39;61.18;95097.69;5096972;28;20227;-70
2023/05/08 07:28:53;;;;;;;5.95;5.40;;;;;;;15.41;60.30;95103.69;5097446;28;20189;-69
2023/05/08 07:31:21;;;;;;;5.82;5.25;;;;;;;15.47;60.42;95094.97;5131135;27;20243;-71
2023/05/08 07:33:50;;;;;;;6.50;5.93;;;;;;;15.53;59.67;95099.81;5096671;28;20195;-71
2023/05/08 07:36:16;;;;;;;6.40;5.63;;;;;;;15.59;59.79;95095.50;5096785;28;20604;-73
2023/05/08 07:38:43;;;;;;;5.50;5.00;;;;;;;15.66;59.99;95103.13;5095703;28;20211;-70
2023/05/08 07:41:10;;;;;;;6.43;5.22;;;;;;;15.71;59.64;95099.19;5130271;27;20528;-70
2023/05/08 07:43:39;;;;;;;6.32;4.75;;;;;;;15.78;59.75;95102.03;5097160;28;20180;-70
2023/05/08 07:46:06;;;;;;;5.40;4.90;;;;;;;15.81;58.38;95096.50;5130335;27;20207;-71
2023/05/08 07:48:35;;;;;;;5.25;4.78;;;;;;;15.88;57.81;95112.44;5096154;28;20246;-70
2023/05/08 07:51:02;;;;;;;5.20;4.72;;;;;;;15.99;58.81;95102.19;5097100;28;20218;-68
2023/05/08 07:53:29;;;;;;;4.85;4.45;;;;;;;16.10;58.57;95105.03;5096686;28;20224;-68
2023/05/08 07:55:55;;;;;;;4.60;4.20;;;;;;;16.20;58.22;95109.09;5096008;28;20196;-68
2023/05/08 07:58:22;;;;;;;4.50;4.10;;;;;;;16.24;58.05;95107.91;5096924;28;20196;-68
2023/05/08 08:00:50;;;;;;;6.05;5.55;;;;;;;16.29;57.51;95101.97;5096898;28;20268;-68
2023/05/08 08:03:17;;;;;;;5.97;5.03;;;;;;;16.32;57.56;95109.56;5096851;28;20215;-68
2023/05/08 08:05:44;;;;;;;7.00;5.35;;;;;;;16.39;57.56;95108.78;5095408;28;20597;-67
2023/05/08 08:08:10;;;;;;;5.13;4.72;;;;;;;16.50;58.02;95111.63;5096632;28;20201;-67
2023/05/08 08:10:38;;;;;;;6.20;4.53;;;;;;;16.56;58.75;95115.66;5096355;28;20199;-68
2023/05/08 08:13:05;;;;;;;6.60;4.80;;;;;;;16.65;57.58;95110.50;5096328;28;20184;-67
2023/05/08 08:15:32;;;;;;;5.07;4.63;;;;;;;16.79;59.85;95107.03;5096269;28;20203;-68
2023/05/08 08:18:00;;;;;;;5.93;4.43;;;;;;;16.94;58.41;95105.88;5097237;28;20189;-68
2023/05/08 08:20:27;;;;;;;5.07;4.43;;;;;;;17.03;58.83;95100.75;5096200;28;20188;-68
2023/05/08 08:22:54;;;;;;;5.72;4.72;;;;;;;17.08;58.03;95100.34;5095758;28;20212;-68
2023/05/08 08:25:21;;;;;;;7.18;5.10;;;;;;;17.07;57.19;95101.56;5095770;28;20264;-68
2023/05/08 08:27:48;;;;;;;6.20;4.95;;;;;;;17.07;57.04;95097.97;5097161;28;20711;-68
2023/05/08 08:30:16;;;;;;;6.07;5.47;;;;;;;17.09;57.89;95098.34;5096223;28;20231;-69
2023/05/08 08:32:42;;;;;;;6.20;5.13;;;;;;;17.14;59.24;95088.81;5095787;28;20199;-68
2023/05/08 08:35:11;;;;;;;6.63;5.05;;;;;;;17.21;59.74;95086.03;5096732;28;20181;-68
2023/05/08 08:37:38;;;;;;;6.90;5.65;;;;;;;17.23;59.12;95081.66;5096261;28;20589;-68
2023/05/08 08:40:06;;;;;;;6.95;5.15;;;;;;;17.21;58.24;95078.50;5096185;28;20261;-68
2023/05/08 08:42:33;;;;;;;6.32;5.03;;;;;;;17.20;58.32;95073.31;5094806;28;20300;-68
2023/05/08 08:45:00;;;;;;;7.40;6.15;;;;;;;17.22;58.01;95070.94;5095952;28;20184;-68
2023/05/08 08:47:29;;;;;;;6.00;5.38;;;;;;;17.23;59.00;95072.50;5129077;27;20601;-68
2023/05/08 08:49:58;;;;;;;5.60;5.10;;;;;;;17.29;59.52;95068.16;5096098;28;20181;-68
2023/05/08 08:52:32;;;;;;;5.35;4.78;;;;;;;17.35;59.19;95058.19;5095903;28;20192;-68
2023/05/08 08:55:00;;;;;;;5.43;5.00;;;;;;;17.36;58.67;95062.59;5095894;28;20250;-68
2023/05/08 08:57:28;;;;;;;5.47;4.80;;;;;;;17.37;58.55;95057.81;5094571;28;20628;-68
2023/05/08 08:59:55;;;;;;;5.47;5.07;;;;;;;17.37;59.08;95060.59;5095844;28;20195;-68
2023/05/08 09:02:22;;;;;;;5.97;5.32;;;;;;;17.32;58.84;95047.84;5094656;28;20223;-68
2023/05/08 09:04:49;;;;;;;5.47;4.97;;;;;;;17.29;59.17;95046.66;5094969;28;20261;-68
2023/05/08 09:07:17;;;;;;;6.85;5.20;;;;;;;17.29;59.53;95041.06;5095788;28;20233;-68
2023/05/08 09:09:47;;;;;;;5.60;5.07;;;;;;;17.30;59.76;95034.28;5095975;28;20184;-68
2023/05/08 09:12:14;;;;;;;5.97;5.25;;;;;;;17.32;59.38;95033.91;5095529;28;20618;-68
2023/05/08 09:14:41;;;;;;;7.00;5.05;;;;;;;17.33;59.21;95019.56;5094554;28;20201;-68
2023/05/08 09:17:07;;;;;;;6.20;5.70;;;;;;;17.35;60.37;95010.78;5095515;28;20197;-68
2023/05/08 09:19:34;;;;;;;6.57;5.30;;;;;;;17.37;59.77;95011.19;5077872;28;20204;-68
2023/05/08 09:22:01;;;;;;;6.00;5.40;;;;;;;17.34;58.61;95003.63;5095676;28;20227;-68
2023/05/08 09:24:57;;;;;;;7.80;5.38;;;;;;;17.36;59.05;94995.69;5128727;27;20200;-68
2023/05/08 09:27:24;;;;;;;6.78;5.43;;;;;;;17.42;60.64;95005.22;5094712;28;20354;-68
2023/05/08 09:30:03;;;;;;;6.40;5.80;;;;;;;17.49;59.91;95010.00;5129116;27;20193;-68
2023/05/08 09:32:30;;;;;;;5.90;5.40;;;;;;;17.55;59.18;95016.78;5095605;28;20226;-68
2023/05/08 09:34:57;;;;;;;5.80;5.30;;;;;;;17.60;59.38;95016.38;5095314;28;20263;-68
2023/05/08 09:37:25;;;;;;;5.70;5.28;;;;;;;17.66;59.31;95025.94;5095341;28;20739;-68
2023/05/08 09:39:53;;;;;;;6.00;5.40;;;;;;;17.74;59.32;95033.09;5095467;28;20180;-68
2023/05/08 09:42:22;;;;;;;6.90;6.20;;;;;;;17.82;59.32;95035.91;5094193;28;20232;-68
2023/05/08 09:44:50;;;;;;;7.00;5.95;;;;;;;17.89;58.32;95035.91;5095471;28;20211;-68
2023/05/08 09:47:19;;;;;;;6.43;5.78;;;;;;;17.96;58.35;95030.31;5095468;28;20181;-68
2023/05/08 09:49:59;;;;;;;6.35;5.43;;;;;;;18.05;58.96;95030.69;5095235;28;20198;-68
2023/05/08 09:52:26;;;;;;;6.30;5.70;;;;;;;18.11;58.94;95026.28;5094405;28;20204;-69
2023/05/08 09:54:58;;;;;;;5.60;5.00;;;;;;;18.21;58.03;95031.03;5095444;28;20192;-68
2023/05/08 09:57:26;;;;;;;5.32;4.93;;;;;;;18.24;57.07;95023.88;5094655;28;20257;-69
2023/05/08 10:00:02;;;;;;;6.25;5.65;;;;;;;18.29;57.99;95023.44;5094481;28;20208;-68
2023/05/08 10:02:29;;;;;;;5.63;5.05;;;;;;;18.37;58.42;95024.19;5094388;28;20219;-68
2023/05/08 10:04:56;;;;;;;5.60;5.10;;;;;;;18.42;57.85;95032.97;5095680;28;20185;-68
2023/05/08 10:07:31;;;;;;;7.03;6.10;;;;;;;18.43;57.30;95025.38;5095096;28;20216;-68
2023/05/08 10:09:59;;;;;;;6.50;6.00;;;;;;;18.43;57.45;95028.19;5094479;28;20221;-68
2023/05/08 10:12:28;;;;;;;6.13;5.53;;;;;;;18.43;57.66;95020.59;5095320;28;20208;-68
2023/05/08 10:14:55;;;;;;;6.70;5.70;;;;;;;18.50;57.34;95022.56;5095295;28;20185;-68
2023/05/08 10:17:26;;;;;;;6.30;5.72;;;;;;;18.52;57.79;95014.59;5094463;28;20241;-68
2023/05/08 10:19:57;;;;;;;5.82;5.43;;;;;;;18.62;59.03;95010.94;5094652;28;20220;-68
2023/05/08 10:22:25;;;;;;;6.63;6.00;;;;;;;18.69;57.16;95005.31;5095031;28;20205;-68
2023/05/08 10:24:56;;;;;;;7.97;5.93;;;;;;;18.72;57.17;95001.75;5093984;28;20258;-68
2023/05/08 10:27:29;;;;;;;6.75;6.15;;;;;;;18.79;56.98;94994.53;5094514;28;20188;-69
2023/05/08 10:30:02;;;;;;;6.15;5.65;;;;;;;18.88;58.05;95000.44;5098432;28;20184;-68
2023/05/08 10:32:36;;;;;;;7.35;6.63;;;;;;;19.06;57.44;94995.53;5099025;28;20188;-68
2023/05/08 10:35:03;;;;;;;6.43;5.82;;;;;;;19.36;56.84;94986.56;5131942;27;20189;-68
2023/05/08 10:37:30;;;;;;;7.18;6.03;;;;;;;19.71;55.34;95004.25;5098431;28;20223;-68
2023/05/08 10:39:58;;;;;;;7.07;5.85;;;;;;;19.88;54.77;94994.91;5132275;27;20226;-68
2023/05/08 10:42:25;;;;;;;6.82;6.13;;;;;;;19.96;54.70;94996.41;5097279;28;20235;-68
2023/05/08 10:44:52;;;;;;;6.43;5.93;;;;;;;20.10;54.58;94991.88;5097666;28;20205;-68
2023/05/08 10:47:24;;;;;;;7.57;6.75;;;;;;;20.35;53.70;94986.78;5098139;28;20538;-68
2023/05/08 10:49:57;;;;;;;6.88;6.18;;;;;;;20.60;54.87;94980.91;5098639;28;20184;-68
2023/05/08 10:52:30;;;;;;;6.82;6.22;;;;;;;20.77;53.37;94986.69;5098529;28;20184;-68
2023/05/08 10:55:19;;;;;;;7.03;5.88;;;;;;;20.88;52.18;94978.97;5098172;28;20188;-68
2023/05/08 10:58:06;;;;;;;6.38;5.88;;;;;;;21.03;53.33;94973.94;5098400;28;20188;-68
2023/05/08 11:00:59;;;;;;;5.90;5.40;;;;;;;21.17;52.64;94973.72;5097817;28;20189;-69
2023/05/08 11:03:28;;;;;;;6.60;5.97;;;;;;;21.44;50.22;94968.09;5097291;28;20220;-68
2023/05/08 11:05:56;;;;;;;6.03;5.50;;;;;;;21.63;49.55;94958.94;5098876;28;20245;-68
2023/05/08 11:08:26;;;;;;;7.07;6.38;;;;;;;21.84;51.20;94954.19;5098435;28;20248;-68
2023/05/08 11:11:05;;;;;;;6.28;5.68;;;;;;;21.89;48.46;94956.50;5097064;28;20200;-68
2023/05/08 11:13:33;;;;;;;5.60;5.10;;;;;;;22.01;48.25;94946.66;5098057;28;20185;-68
2023/05/08 11:16:00;;;;;;;5.80;5.30;;;;;;;22.10;47.20;94946.88;5097582;28;20199;-68
2023/05/08 11:18:29;;;;;;;5.38;4.90;;;;;;;21.97;47.65;94935.50;5131419;27;20253;-68
2023/05/08 11:20:57;;;;;;;5.65;5.00;;;;;;;22.00;46.63;94936.63;5096943;28;20200;-69
2023/05/08 11:23:25;;;;;;;5.57;5.18;;;;;;;21.96;47.21;94933.91;5131431;27;20216;-68
2023/05/08 11:26:00;;;;;;;5.70;5.22;;;;;;;21.99;47.02;94935.84;5097268;28;20600;-68
2023/05/08 11:28:27;;;;;;;5.53;5.13;;;;;;;22.15;46.99;94934.38;5097021;28;20199;-68
2023/05/08 11:30:54;;;;;;;5.53;5.15;;;;;;;22.31;47.70;94924.00;5096437;28;20196;-68
2023/05/08 11:33:21;;;;;;;6.70;5.53;;;;;;;22.48;47.17;94924.09;5097387;28;20295;-68
2023/05/08 11:35:54;;;;;;;5.13;4.72;;;;;;;22.60;45.07;94914.97;5097119;28;20199;-68
2023/05/08 11:38:24;;;;;;;5.90;5.40;;;;;;;22.62;46.04;94917.34;5097785;28;20245;-68
2023/05/08 11:40:56;;;;;;;5.82;5.25;;;;;;;22.62;45.12;94904.06;5096258;28;20204;-68
2023/05/08 11:43:43;;;;;;;5.10;4.60;;;;;;;22.71;44.71;94909.91;5097212;28;20276;-69
2023/05/08 11:46:15;;;;;;;5.13;4.72;;;;;;;22.80;43.07;94900.88;5089284;28;20628;-68
2023/05/08 11:48:43;;;;;;;5.25;4.85;;;;;;;22.75;45.50;94895.78;5096619;28;20207;-68
2023/05/08 11:51:12;;;;;;;5.57;5.15;;;;;;;22.81;45.28;94891.22;5097811;28;20590;-68
2023/05/08 11:53:39;;;;;;;5.57;5.18;;;;;;;22.89;45.10;94889.03;5096971;28;20227;-68
2023/05/08 11:56:06;;;;;;;7.05;5.95;;;;;;;23.00;44.39;94887.59;5130439;27;20211;-68
2023/05/08 11:58:33;;;;;;;5.45;4.95;;;;;;;23.18;44.91;94880.75;5097203;28;20204;-68
2023/05/08 12:01:00;;;;;;;5.22;4.75;;;;;;;23.30;44.27;94880.03;5130439;27;20502;-69
2023/05/08 12:03:27;;;;;;;5.22;4.78;;;;;;;23.18;41.77;94881.53;5097229;28;20212;-68
2023/05/08 12:05:56;;;;;;;4.90;4.50;;;;;;;22.90;43.44;94877.34;5096651;28;20250;-73
2023/05/08 12:08:25;;;;;;;5.38;4.95;;;;;;;22.89;44.12;94878.56;5097415;28;20180;-74
2023/05/08 12:10:54;;;;;;;5.15;4.63;;;;;;;22.91;43.27;94873.28;5096600;28;20201;-75
2023/05/08 12:13:21;;;;;;;4.90;4.50;;;;;;;22.74;42.71;94875.31;5097069;28;20193;-73
2023/05/08 12:15:52;;;;;;;5.10;4.70;;;;;;;22.55;43.06;94871.31;5096902;28;20268;-74
2023/05/08 12:18:19;;;;;;;5.00;4.60;;;;;;;22.27;43.52;94872.72;5097206;28;20210;-74
2023/05/08 12:20:45;;;;;;;5.35;4.90;;;;;;;22.04;44.16;94876.38;5096160;28;20201;-74
2023/05/08 12:23:13;;;;;;;5.88;5.25;;;;;;;21.89;43.41;94877.88;5096577;28;20560;-73
2023/05/08 12:25:41;;;;;;;6.03;5.05;;;;;;;21.77;43.24;94872.91;5097708;28;20195;-72
2023/05/08 12:28:09;;;;;;;5.78;5.32;;;;;;;21.76;43.82;94876.94;5095959;28;20192;-76
2023/05/08 12:30:36;;;;;;;4.90;4.50;;;;;;;21.73;44.14;94872.97;5095695;28;20572;-72
2023/05/08 12:33:03;;;;;;;5.38;4.75;;;;;;;21.74;44.61;94873.78;5095418;28;20203;-70
2023/05/08 12:35:30;;;;;;;4.97;4.60;;;;;;;21.71;44.28;94869.00;5096028;28;20196;-73
2023/05/08 12:38:01;;;;;;;4.93;4.47;;;;;;;21.81;44.45;94868.03;5095108;28;20200;-73
2023/05/08 12:40:30;;;;;;;5.07;4.68;;;;;;;21.82;44.81;94872.41;5095292;28;20204;-73
2023/05/08 12:43:01;;;;;;;4.80;4.47;;;;;;;21.70;45.10;94865.41;5095591;28;20267;-74
2023/05/08 12:45:28;;;;;;;4.18;3.80;;;;;;;21.56;44.75;94866.47;5095855;28;20204;-74
2023/05/08 12:47:59;;;;;;;4.90;4.50;;;;;;;21.38;45.46;94860.38;5095131;28;20208;-74
2023/05/08 12:50:26;;;;;;;4.70;4.38;;;;;;;21.27;45.21;94865.38;5094806;28;20189;-74
2023/05/08 12:52:53;;;;;;;4.43;4.13;;;;;;;21.18;45.12;94857.50;5094811;28;20290;-74
2023/05/08 12:55:24;;;;;;;4.90;4.50;;;;;;;21.11;45.88;94860.44;5095995;28;20204;-74
2023/05/08 12:57:58;;;;;;;5.15;4.80;;;;;;;21.06;45.62;94856.13;5095710;28;20208;-74
2023/05/08 13:00:35;;;;;;;4.50;4.20;;;;;;;21.02;45.27;94857.38;5095042;28;20202;-74
2023/05/08 13:03:02;;;;;;;4.30;4.00;;;;;;;21.05;44.85;94848.91;5094612;28;20196;-74
2023/05/08 13:05:29;;;;;;;4.72;4.25;;;;;;;21.18;44.64;94853.91;5095488;28;20233;-74
2023/05/08 13:08:01;;;;;;;4.70;4.32;;;;;;;21.34;43.65;94848.44;5128906;27;20600;-75
2023/05/08 13:10:45;;;;;;;4.85;4.15;;;;;;;21.37;44.83;94847.59;5095736;28;20379;-72
2023/05/08 13:13:11;;;;;;;4.50;4.10;;;;;;;21.27;44.78;94857.75;5094563;28;20285;-74
2023/05/08 13:15:42;;;;;;;5.72;5.30;;;;;;;21.19;45.31;94859.09;5095288;28;20585;-71
2023/05/08 13:18:11;;;;;;;5.93;4.75;;;;;;;21.10;45.35;94856.84;5129089;27;20531;-71
2023/05/08 13:20:38;;;;;;;5.82;4.85;;;;;;;21.00;46.70;94871.03;5094658;28;20199;-71
2023/05/08 13:23:06;;;;;;;6.03;5.38;;;;;;;20.91;48.28;94877.16;5094390;28;20196;-71
2023/05/08 13:25:33;;;;;;;6.55;5.95;;;;;;;20.53;50.92;94882.16;5094542;28;20193;-71
2023/05/08 13:28:01;;;;;;;7.57;5.32;;;;;;;20.32;51.30;94891.63;5095683;28;20604;-71
2023/05/08 13:30:28;;;;;;;6.88;5.47;;;;;;;20.20;51.36;94896.56;5128701;27;20192;-70
2023/05/08 13:32:56;;;;;;;9.35;7.03;;;;;;;20.10;51.52;94897.47;5095211;28;20212;-70
2023/05/08 13:35:24;;;;;;;9.32;8.48;;;;;;;20.04;51.71;94901.94;5094341;28;20192;-70
2023/05/08 13:37:51;;;;;;;9.35;7.55;;;;;;;20.01;52.71;94905.59;5094595;28;20207;-71
2023/05/08 13:40:18;;;;;;;8.35;7.50;;;;;;;19.98;52.80;94912.03;5095312;28;20350;-70
2023/05/08 13:42:44;;;;;;;8.15;7.45;;;;;;;19.94;52.67;94911.28;5093753;28;20242;-70
2023/05/08 13:45:13;;;;;;;8.68;7.22;;;;;;;19.92;52.68;94913.69;5094277;28;20273;-70
2023/05/08 13:47:40;;;;;;;6.80;6.10;;;;;;;19.87;52.65;94917.75;5095292;28;20242;-70
2023/05/08 13:50:09;;;;;;;7.03;6.40;;;;;;;19.74;53.04;94921.50;5094075;28;20230;-70
2023/05/08 13:52:36;;;;;;;6.72;5.97;;;;;;;19.65;53.63;94927.59;5095355;28;20188;-71
2023/05/08 13:55:04;;;;;;;6.50;5.80;;;;;;;19.54;53.83;94930.47;5095128;28;20191;-71
2023/05/08 13:57:31;;;;;;;5.85;5.43;;;;;;;19.46;53.95;94929.75;5094226;28;20208;-70
2023/05/08 13:59:58;;;;;;;6.50;5.93;;;;;;;19.40;54.12;94939.78;5095359;28;20180;-71
2023/05/08 14:02:26;;;;;;;6.30;5.70;;;;;;;19.35;54.77;94942.22;5094021;28;20192;-70
2023/05/08 14:04:53;;;;;;;5.75;5.25;;;;;;;19.26;55.13;94942.69;5098183;28;20216;-70
2023/05/08 14:07:21;;;;;;;6.43;5.80;;;;;;;19.19;55.22;94943.53;5098038;28;20189;-70
2023/05/08 14:09:47;;;;;;;6.35;5.85;;;;;;;19.15;55.28;94947.56;5132768;27;20215;-70
2023/05/08 14:12:15;;;;;;;6.82;6.22;;;;;;;19.05;55.99;94957.63;5098663;28;20184;-69
2023/05/08 14:14:42;;;;;;;6.20;5.60;;;;;;;18.98;55.75;94957.66;5098629;28;20200;-70
2023/05/08 14:17:10;;;;;;;8.98;6.55;;;;;;;18.92;56.43;94962.91;5098925;28;20200;-72
2023/05/08 14:19:39;;;;;;;6.40;5.80;;;;;;;18.88;56.51;94978.91;5097830;28;20220;-71
2023/05/08 14:22:06;;;;;;;7.45;5.60;;;;;;;18.73;56.58;94975.38;5099068;28;20184;-71
2023/05/08 14:24:38;;;;;;;6.80;5.93;;;;;;;18.60;57.20;94970.66;5132071;27;20248;-71
2023/05/08 14:27:07;;;;;;;6.60;6.03;;;;;;;18.49;57.14;94981.88;5098572;28;20257;-71
2023/05/08 14:29:34;;;;;;;6.05;5.47;;;;;;;18.39;57.88;94988.31;5098700;28;20203;-70
2023/05/08 14:32:01;;;;;;;6.38;5.88;;;;;;;18.37;57.61;94996.28;5098372;28;20196;-71
2023/05/08 14:34:29;;;;;;;6.53;5.28;;;;;;;18.23;57.34;94989.56;5131998;27;20200;-71
2023/05/08 14:36:56;;;;;;;5.93;5.32;;;;;;;18.23;57.38;94997.94;5098540;28;20184;-71
2023/05/08 14:39:26;;;;;;;6.28;5.78;;;;;;;18.16;57.68;94995.19;5132243;27;20207;-71
2023/05/08 14:41:57;;;;;;;6.82;5.47;;;;;;;18.11;57.95;95003.94;5097402;28;20247;-75
2023/05/08 14:44:24;;;;;;;6.60;6.00;;;;;;;18.08;58.16;95013.13;5097626;28;20213;-77
2023/05/08 14:46:51;;;;;;;5.90;5.40;;;;;;;18.02;58.03;95011.97;5097560;28;20204;-74
2023/05/08 14:49:18;;;;;;;6.10;4.97;;;;;;;17.96;57.75;95013.56;5097928;28;20199;-75
2023/05/08 14:51:49;;;;;;;7.15;5.40;;;;;;;17.93;58.40;95015.16;5097833;28;20615;-72
2023/05/08 14:54:16;;;;;;;6.15;5.50;;;;;;;17.91;58.01;95011.97;5097162;28;20547;-73
2023/05/08 14:56:44;;;;;;;8.55;5.60;;;;;;;17.86;58.18;95017.94;5097240;28;20246;-74
2023/05/08 14:59:14;;;;;;;5.53;5.03;;;;;;;17.77;58.56;95018.38;5098135;28;20177;-69
2023/05/08 15:01:42;;;;;;;11.23;7.05;;;;;;;17.72;59.33;95023.53;5098655;28;20200;-73
2023/05/08 15:04:10;;;;;;;8.95;8.05;;;;;;;17.71;59.12;95021.94;5098225;28;20716;-70
2023/05/08 15:06:39;;;;;;;8.05;6.97;;;;;;;17.65;58.98;95023.56;5097305;28;20192;-69
2023/05/08 15:09:10;;;;;;;8.18;7.47;;;;;;;17.62;59.76;95024.34;5098204;28;20192;-73
2023/05/08 15:11:37;;;;;;;8.60;7.78;;;;;;;17.60;59.75;95035.09;5097067;28;20216;-73
2023/05/08 15:14:04;;;;;;;10.02;9.23;;;;;;;17.57;59.79;95028.31;5096817;28;20196;-73
2023/05/08 15:16:32;;;;;;;7.45;6.80;;;;;;;17.53;60.42;95030.31;5096724;28;20297;-73
2023/05/08 15:18:59;;;;;;;7.65;5.78;;;;;;;17.51;60.20;95036.28;5097473;28;20184;-71
2023/05/08 15:21:26;;;;;;;6.15;5.65;;;;;;;17.48;60.94;95042.66;5097787;28;20180;-72
2023/05/08 15:23:53;;;;;;;5.28;4.88;;;;;;;17.41;61.03;95036.28;5096727;28;20200;-72
2023/05/08 15:26:20;;;;;;;5.90;4.93;;;;;;;17.32;61.55;95031.91;5097370;28;20188;-72
2023/05/08 15:28:48;;;;;;;5.22;4.60;;;;;;;17.33;61.50;95030.72;5096672;28;20196;-71
2023/05/08 15:31:14;;;;;;;4.28;3.90;;;;;;;17.31;61.30;95030.31;5097549;28;20196;-71
2023/05/08 15:33:46;;;;;;;6.63;4.70;;;;;;;17.22;61.46;95029.13;5097474;28;20177;-70
2023/05/08 15:36:13;;;;;;;4.85;3.63;;;;;;;17.16;61.33;95039.06;5096249;28;20632;-72
2023/05/08 15:38:40;;;;;;;4.03;3.63;;;;;;;17.07;61.32;95037.47;5097478;28;20180;-75
2023/05/08 15:41:08;;;;;;;4.15;3.50;;;;;;;16.92;60.58;95047.00;5096802;28;20671;-72
2023/05/08 15:43:35;;;;;;;3.45;3.05;;;;;;;16.86;60.61;95044.97;5130684;27;20245;-70
2023/05/08 15:46:02;;;;;;;3.17;2.90;;;;;;;16.73;60.03;95050.06;5130325;27;20220;-71
2023/05/08 15:48:29;;;;;;;3.47;3.17;;;;;;;16.75;60.91;95047.72;5097304;28;20196;-72
2023/05/08 15:50:57;;;;;;;4.07;3.10;;;;;;;16.71;60.23;95049.69;5097146;28;20208;-70
2023/05/08 15:53:24;;;;;;;3.33;3.13;;;;;;;16.68;60.05;95047.69;5097349;28;20200;-74
2023/05/08 15:55:51;;;;;;;3.55;3.25;;;;;;;16.60;59.81;95036.50;5097036;28;20197;-74
2023/05/08 15:58:17;;;;;;;4.03;3.42;;;;;;;16.48;60.03;95042.41;5096728;28;20188;-74
2023/05/08 16:00:44;;;;;;;3.50;3.30;;;;;;;16.46;60.46;95044.00;5096101;28;20207;-72
2023/05/08 16:03:11;;;;;;;4.43;3.65;;;;;;;16.48;60.14;95047.97;5130025;27;20204;-73
2023/05/08 16:05:38;;;;;;;4.45;3.78;;;;;;;16.52;60.28;95043.25;5096957;28;20176;-72
2023/05/08 16:08:07;;;;;;;4.13;3.72;;;;;;;16.55;60.19;95044.44;5096566;28;20188;-71
2023/05/08 16:10:34;;;;;;;4.57;4.10;;;;;;;16.60;59.88;95055.22;5096491;28;20193;-73
2023/05/08 16:13:00;;;;;;;5.28;4.15;;;;;;;16.61;59.84;95052.03;5095580;28;20199;-72
2023/05/08 16:15:27;;;;;;;4.55;4.15;;;;;;;16.59;59.99;95053.59;5096457;28;20211;-70
2023/05/08 16:17:54;;;;;;;5.18;4.30;;;;;;;16.53;60.34;95060.75;5095766;28;20204;-70
2023/05/08 16:20:21;;;;;;;4.22;3.85;;;;;;;16.47;59.98;95062.31;5095678;28;20222;-71
2023/05/08 16:22:48;;;;;;;4.78;3.70;;;;;;;16.45;60.01;95062.72;5096580;28;20219;-71
2023/05/08 16:25:16;;;;;;;4.18;3.50;;;;;;;16.45;60.20;95059.09;5094847;28;20196;-71
2023/05/08 16:27:43;;;;;;;4.97;4.03;;;;;;;16.42;60.29;95051.56;5095515;28;20616;-71
2023/05/08 16:30:11;;;;;;;4.70;4.22;;;;;;;16.41;60.10;95063.84;5129667;27;20646;-71
2023/05/08 16:32:38;;;;;;;4.53;4.13;;;;;;;16.35;60.76;95060.66;5096422;28;20208;-71
2023/05/08 16:35:08;;;;;;;4.32;3.72;;;;;;;16.30;60.57;95063.81;5078203;28;20327;-71
2023/05/08 16:37:35;;;;;;;4.78;4.30;;;;;;;16.28;61.19;95069.78;5096551;28;20192;-71
2023/05/08 16:40:02;;;;;;;5.03;4.53;;;;;;;16.18;61.23;95073.28;5095549;28;20212;-71
2023/05/08 16:42:30;;;;;;;5.20;4.80;;;;;;;16.03;61.35;95071.63;5095759;28;20232;-69
2023/05/08 16:44:57;;;;;;;4.57;4.18;;;;;;;15.92;62.54;95065.19;5129329;27;20204;-70
2023/05/08 16:47:24;;;;;;;5.20;4.70;;;;;;;15.83;62.04;95069.13;5129676;27;20211;-70
2023/05/08 16:49:52;;;;;;;5.47;4.40;;;;;;;15.82;62.35;95069.47;5095420;28;20199;-69
2023/05/08 16:52:19;;;;;;;5.20;4.65;;;;;;;15.89;62.55;95084.22;5095335;28;20196;-70
2023/05/08 16:54:46;;;;;;;4.55;4.15;;;;;;;16.03;62.53;95086.31;5095651;28;20655;-70
2023/05/08 16:57:13;;;;;;;7.47;4.95;;;;;;;16.07;62.19;95084.34;5094786;28;20196;-69
2023/05/08 16:59:41;;;;;;;6.40;5.05;;;;;;;15.97;61.71;95090.63;5095637;28;20188;-70
2023/05/08 17:02:08;;;;;;;5.65;5.15;;;;;;;15.86;61.39;95089.78;5096059;28;20192;-70
2023/05/08 17:04:35;;;;;;;5.45;5.05;;;;;;;15.77;61.96;95090.13;5096018;28;20673;-70
2023/05/08 17:07:03;;;;;;;5.50;5.00;;;;;;;15.69;62.10;95088.47;5078178;28;20192;-71
2023/05/08 17:09:30;;;;;;;5.63;5.13;;;;;;;15.65;62.52;95090.41;5095333;28;20612;-72
2023/05/08 17:11:57;;;;;;;5.57;5.00;;;;;;;15.57;62.32;95100.63;5095418;28;20185;-71
2023/05/08 17:14:24;;;;;;;4.68;4.28;;;;;;;15.55;62.42;95099.44;5095293;28;20218;-72
2023/05/08 17:16:55;;;;;;;5.55;5.05;;;;;;;15.62;62.27;95096.72;5128889;27;20222;-76
2023/05/08 17:19:22;;;;;;;6.05;5.20;;;;;;;15.64;62.42;95108.25;5095849;28;20242;-72
2023/05/08 17:21:49;;;;;;;6.13;5.47;;;;;;;15.62;62.32;95105.06;5095504;28;20623;-71